createdAt,value
2019-05-09T00:00:43.946Z,98.33
2019-05-09T00:03:13.954Z,97.99
2019-05-09T00:05:44.132Z,96.72
2019-05-09T00:08:14.082Z,96.11
2019-05-09T00:10:44.916Z,96.00
2019-05-09T00:13:14.433Z,96.05
2019-05-09T00:15:43.838Z,97.21
2019-05-09T00:18:14.315Z,98.18
2019-05-09T00:20:49.317Z,100.00
2019-05-09T00:23:18.586Z,99.92
2019-05-09T00:25:47.817Z,100.00
2019-05-09T00:28:17.047Z,99.65
2019-05-09T00:31:14.307Z,99.23
2019-05-09T00:33:48.145Z,100.00
2019-05-09T00:36:17.908Z,100.00
2019-05-09T00:38:47.243Z,100.00
2019-05-09T00:41:16.478Z,100.00
2019-05-09T00:43:54.169Z,100.00
2019-05-09T00:46:33.966Z,100.00
2019-05-09T00:49:06.044Z,100.00
2019-05-09T00:51:35.283Z,100.00
2019-05-09T00:54:05.171Z,100.00
2019-05-09T00:56:34.502Z,100.00
2019-05-09T00:59:04.399Z,100.00
2019-05-09T01:01:34.309Z,100.00
2019-05-09T01:04:04.522Z,100.00
2019-05-09T01:06:34.205Z,100.00
2019-05-09T01:09:05.326Z,100.00
2019-05-09T01:11:34.562Z,100.00
2019-05-09T01:14:03.802Z,100.00
2019-05-09T01:16:33.589Z,100.00
2019-05-09T01:19:03.720Z,100.00
2019-05-09T01:21:33.494Z,100.00
2019-05-09T01:24:03.526Z,100.00
2019-05-09T01:26:33.506Z,100.00
2019-05-09T01:29:04.335Z,100.00
2019-05-09T01:31:33.777Z,100.00
2019-05-09T01:34:14.354Z,100.00
2019-05-09T01:37:03.512Z,100.00
2019-05-09T01:39:33.706Z,100.00
2019-05-09T01:42:03.517Z,100.00
2019-05-09T01:44:33.474Z,100.00
2019-05-09T01:47:03.761Z,100.00
2019-05-09T01:49:34.342Z,100.00
2019-05-09T01:52:03.882Z,100.00
2019-05-09T01:54:34.264Z,100.00
2019-05-09T01:57:03.650Z,100.00
2019-05-09T01:59:33.983Z,100.00
2019-05-09T02:02:08.287Z,100.00
2019-05-09T02:04:34.674Z,100.00
2019-05-09T02:07:04.339Z,100.00
2019-05-09T02:09:34.429Z,100.00
2019-05-09T02:12:04.392Z,100.00
2019-05-09T02:14:49.637Z,100.00
2019-05-09T02:17:37.815Z,100.00
2019-05-09T02:20:07.541Z,100.00
2019-05-09T02:22:36.948Z,100.00
2019-05-09T02:25:06.975Z,100.00
2019-05-09T02:27:36.315Z,100.00
2019-05-09T02:30:06.375Z,100.00
2019-05-09T02:32:36.012Z,100.00
2019-05-09T02:35:05.683Z,100.00
2019-05-09T02:37:38.559Z,100.00
2019-05-09T02:40:09.289Z,100.00
2019-05-09T02:42:39.637Z,100.00
2019-05-09T02:45:09.031Z,100.00
2019-05-09T02:47:38.794Z,100.00
2019-05-09T02:50:09.634Z,100.00
2019-05-09T02:52:39.741Z,100.00
2019-05-09T02:55:10.880Z,100.00
2019-05-09T02:57:40.376Z,100.00
2019-05-09T03:00:28.864Z,100.00
2019-05-09T03:03:19.575Z,100.00
2019-05-09T03:05:48.733Z,100.00
2019-05-09T03:08:19.264Z,100.00
2019-05-09T03:10:49.362Z,100.00
2019-05-09T03:13:19.377Z,100.00
2019-05-09T03:15:50.266Z,100.00
2019-05-09T03:18:19.493Z,100.00
2019-05-09T03:21:08.944Z,100.00
2019-05-09T03:23:39.055Z,100.00
2019-05-09T03:26:10.199Z,100.00
2019-05-09T03:29:01.243Z,100.00
2019-05-09T03:31:31.578Z,100.00
2019-05-09T03:34:00.816Z,100.00
2019-05-09T03:36:30.148Z,99.41
2019-05-09T03:38:59.379Z,98.36
2019-05-09T03:41:28.620Z,98.37
2019-05-09T03:43:58.569Z,97.49
2019-05-09T03:46:38.542Z,95.52
2019-05-09T03:49:08.379Z,94.95
2019-05-09T03:51:37.993Z,93.67
2019-05-09T03:54:08.201Z,96.40
2019-05-09T03:56:42.121Z,98.93
2019-05-09T03:59:11.355Z,100.00
2019-05-09T04:01:40.629Z,100.00
2019-05-09T04:04:09.908Z,100.00
2019-05-09T04:06:40.865Z,100.00
2019-05-09T04:09:10.185Z,100.00
2019-05-09T04:11:39.447Z,100.00
2019-05-09T04:14:12.553Z,100.00
2019-05-09T04:16:41.780Z,100.00
2019-05-09T04:19:12.048Z,100.00
2019-05-09T04:21:41.300Z,100.00
2019-05-09T04:24:10.845Z,100.00
2019-05-09T04:26:48.453Z,100.00
2019-05-09T04:29:18.486Z,97.30
2019-05-09T04:31:48.439Z,96.41
2019-05-09T04:34:18.411Z,95.96
2019-05-09T04:36:48.330Z,94.39
2019-05-09T04:39:23.145Z,94.17
2019-05-09T04:41:49.050Z,93.61
2019-05-09T04:44:57.107Z,94.81
2019-05-09T04:47:20.219Z,95.19
2019-05-09T04:49:49.593Z,94.40
2019-05-09T04:52:18.821Z,93.83
2019-05-09T04:54:48.644Z,94.20
2019-05-09T04:57:18.012Z,94.98
2019-05-09T04:59:47.665Z,93.87
2019-05-09T05:02:35.072Z,91.50
2019-05-09T05:05:04.648Z,91.91
2019-05-09T05:07:33.880Z,88.72
2019-05-09T05:10:03.215Z,90.41
2019-05-09T05:12:32.426Z,90.47
2019-05-09T05:15:01.665Z,89.98
2019-05-09T05:17:30.922Z,91.45
2019-05-09T05:20:00.895Z,89.32
2019-05-09T05:22:49.077Z,89.53
2019-05-09T05:25:18.305Z,90.93
2019-05-09T05:27:47.619Z,90.72
2019-05-09T05:30:17.940Z,91.32
2019-05-09T05:32:57.914Z,91.97
2019-05-09T05:35:37.537Z,90.77
2019-05-09T05:38:08.501Z,91.04
2019-05-09T05:40:45.230Z,90.62
2019-05-09T05:43:08.942Z,89.99
2019-05-09T05:45:53.959Z,90.49
2019-05-09T05:48:27.876Z,90.56
2019-05-09T05:50:57.833Z,89.10
2019-05-09T05:53:27.739Z,88.83
2019-05-09T05:55:58.064Z,88.25
2019-05-09T05:58:28.319Z,86.82
2019-05-09T06:00:58.906Z,85.71
2019-05-09T06:03:28.605Z,83.06
2019-05-09T06:05:58.441Z,82.32
2019-05-09T06:08:28.133Z,81.84
2019-05-09T06:10:57.702Z,81.08
2019-05-09T06:13:27.620Z,81.19
2019-05-09T06:15:58.636Z,81.37
2019-05-09T06:18:28.040Z,82.39
2019-05-09T06:20:58.346Z,82.51
2019-05-09T06:23:28.323Z,82.72
2019-05-09T06:25:58.827Z,83.43
2019-05-09T06:28:28.223Z,83.46
2019-05-09T06:30:58.485Z,82.89
2019-05-09T06:33:28.707Z,83.21
2019-05-09T06:35:58.915Z,84.56
2019-05-09T06:38:28.538Z,84.61
2019-05-09T06:40:58.220Z,83.45
2019-05-09T06:43:30.236Z,82.06
2019-05-09T06:46:18.338Z,81.16
2019-05-09T06:48:48.014Z,79.48
2019-05-09T06:51:20.637Z,77.94
2019-05-09T06:53:48.810Z,78.58
2019-05-09T06:56:18.205Z,78.45
2019-05-09T06:58:48.119Z,78.73
2019-05-09T07:01:34.699Z,78.12
2019-05-09T07:04:11.608Z,76.86
2019-05-09T07:06:53.936Z,76.07
2019-05-09T07:09:51.259Z,75.49
2019-05-09T07:12:20.559Z,74.46
2019-05-09T07:14:49.878Z,72.68
2019-05-09T07:17:20.227Z,71.39
2019-05-09T07:19:49.564Z,72.94
2019-05-09T07:22:39.246Z,74.28
2019-05-09T07:25:40.066Z,74.75
2019-05-09T07:28:09.305Z,75.48
2019-05-09T07:30:44.569Z,73.53
2019-05-09T07:33:38.222Z,75.52
2019-05-09T07:36:08.542Z,75.83
2019-05-09T07:38:38.498Z,74.13
2019-05-09T07:41:08.825Z,71.89
2019-05-09T07:43:38.765Z,70.76
2019-05-09T07:46:33.035Z,69.91
2019-05-09T07:49:04.693Z,70.07
2019-05-09T07:51:33.933Z,69.07
2019-05-09T07:54:18.256Z,69.86
2019-05-09T07:56:34.069Z,71.39
2019-05-09T07:59:03.396Z,70.70
2019-05-09T08:01:32.714Z,70.30
2019-05-09T08:04:01.962Z,70.16
2019-05-09T08:06:31.199Z,70.46
2019-05-09T08:09:00.646Z,67.75
2019-05-09T08:11:32.317Z,66.82
2019-05-09T08:14:00.731Z,65.15
2019-05-09T08:16:30.002Z,65.57
2019-05-09T08:18:59.555Z,63.70
2019-05-09T08:21:28.798Z,64.86
2019-05-09T08:23:58.171Z,64.83
2019-05-09T08:26:29.747Z,64.99
2019-05-09T08:28:58.632Z,63.64
2019-05-09T08:31:28.314Z,64.19
2019-05-09T08:33:59.399Z,63.37
2019-05-09T08:36:29.000Z,61.85
2019-05-09T08:38:58.882Z,59.66
2019-05-09T08:41:29.201Z,59.50
2019-05-09T08:43:58.842Z,60.89
2019-05-09T08:46:28.774Z,60.61
2019-05-09T08:48:58.332Z,60.81
2019-05-09T08:51:50.492Z,60.83
2019-05-09T08:54:10.734Z,58.20
2019-05-09T08:56:39.963Z,57.12
2019-05-09T08:59:09.337Z,59.66
2019-05-09T09:02:05.055Z,60.54
2019-05-09T09:04:09.475Z,59.97
2019-05-09T09:06:38.815Z,55.79
2019-05-09T09:09:08.198Z,55.97
2019-05-09T09:11:38.548Z,54.98
2019-05-09T09:14:08.270Z,56.71
2019-05-09T09:16:38.041Z,55.42
2019-05-09T09:19:08.967Z,54.57
2019-05-09T09:21:38.937Z,52.88
2019-05-09T09:24:08.862Z,52.63
2019-05-09T09:26:38.300Z,54.08
2019-05-09T09:29:08.554Z,53.42
2019-05-09T09:31:37.986Z,51.30
2019-05-09T09:34:08.051Z,52.30
2019-05-09T09:36:39.081Z,51.90
2019-05-09T09:39:11.018Z,50.83
2019-05-09T09:41:40.268Z,53.64
2019-05-09T09:44:09.609Z,49.49
2019-05-09T09:46:38.840Z,48.34
2019-05-09T09:49:08.208Z,49.37
2019-05-09T09:51:38.281Z,49.47
2019-05-09T09:54:08.740Z,45.22
2019-05-09T09:56:38.774Z,45.07
2019-05-09T09:59:30.656Z,44.60
2019-05-09T10:02:00.305Z,44.45
2019-05-09T10:04:29.576Z,48.38
2019-05-09T10:06:58.865Z,47.98
2019-05-09T10:09:28.116Z,47.29
2019-05-09T10:12:00.572Z,48.32
2019-05-09T10:14:31.767Z,48.98
2019-05-09T10:17:21.489Z,49.42
2019-05-09T10:20:20.763Z,48.03
2019-05-09T10:22:59.680Z,48.41
2019-05-09T10:25:21.007Z,47.96
2019-05-09T10:27:50.295Z,47.93
2019-05-09T10:30:20.980Z,49.60
2019-05-09T10:32:50.323Z,47.91
2019-05-09T10:35:23.332Z,50.31
2019-05-09T10:37:52.562Z,51.31
2019-05-09T10:40:22.891Z,50.83
2019-05-09T10:43:34.578Z,51.85
2019-05-09T10:46:19.118Z,50.46
2019-05-09T10:48:52.228Z,50.91
2019-05-09T10:51:21.476Z,52.34
2019-05-09T10:53:50.728Z,52.32
2019-05-09T10:56:20.196Z,51.12
2019-05-09T10:58:49.436Z,51.72
2019-05-09T11:01:20.803Z,51.37
2019-05-09T11:03:50.094Z,51.29
2019-05-09T11:06:19.322Z,50.23
2019-05-09T11:08:48.558Z,51.81
2019-05-09T11:11:18.474Z,50.43
2019-05-09T11:13:48.444Z,52.70
2019-05-09T11:16:18.555Z,52.65
2019-05-09T11:18:48.551Z,52.78
2019-05-09T11:21:19.295Z,50.66
2019-05-09T11:23:49.203Z,53.36
2019-05-09T11:26:18.792Z,55.25
2019-05-09T11:28:48.041Z,56.29
2019-05-09T11:31:18.345Z,55.97
2019-05-09T11:33:48.546Z,53.89
2019-05-09T11:36:21.123Z,55.16
2019-05-09T11:38:49.694Z,55.53
2019-05-09T11:41:19.714Z,56.98
2019-05-09T11:43:49.087Z,58.46
2019-05-09T11:46:18.746Z,59.16
2019-05-09T11:48:48.295Z,59.35
2019-05-09T11:51:22.726Z,61.74
2019-05-09T11:53:51.112Z,60.68
2019-05-09T11:56:20.441Z,60.94
2019-05-09T11:58:49.695Z,60.25
2019-05-09T12:01:19.361Z,62.49
2019-05-09T12:03:52.386Z,64.75
2019-05-09T12:06:21.615Z,68.96
2019-05-09T12:08:50.854Z,69.57
2019-05-09T12:11:20.125Z,69.26
2019-05-09T12:13:49.643Z,70.69
2019-05-09T12:16:18.975Z,72.00
2019-05-09T12:18:49.019Z,71.19
2019-05-09T12:21:19.443Z,72.15
2019-05-09T12:23:49.737Z,71.92
2019-05-09T12:26:19.248Z,73.17
2019-05-09T12:28:48.899Z,73.75
2019-05-09T12:31:18.562Z,74.61
2019-05-09T12:33:48.590Z,73.27
2019-05-09T12:36:19.050Z,76.69
2019-05-09T12:38:49.981Z,75.61
2019-05-09T12:41:19.645Z,76.59
2019-05-09T12:43:48.896Z,79.20
2019-05-09T12:46:18.152Z,80.39
2019-05-09T12:48:48.131Z,79.43
2019-05-09T12:51:18.459Z,81.99
2019-05-09T12:53:48.604Z,82.43
2019-05-09T12:56:18.876Z,78.75
2019-05-09T12:58:48.175Z,83.64
2019-05-09T13:01:18.774Z,81.92
2019-05-09T13:10:09.098Z,82.62
2019-05-09T13:12:39.053Z,82.74
2019-05-09T13:15:09.027Z,82.62
2019-05-09T13:17:48.040Z,83.77
2019-05-09T13:20:18.578Z,81.91
2019-05-09T13:22:47.903Z,79.01
2019-05-09T13:25:18.873Z,82.51
2019-05-09T13:27:51.718Z,81.39
2019-05-09T13:30:19.657Z,77.95
2019-05-09T13:36:13.255Z,75.39
2019-05-09T13:38:56.410Z,76.43
2019-05-09T13:41:14.467Z,78.24
2019-05-09T13:43:47.405Z,78.74
2019-05-09T13:46:14.663Z,82.19
2019-05-09T13:49:04.500Z,81.00
2019-05-09T13:51:14.849Z,81.74
2019-05-09T13:53:44.090Z,80.84
2019-05-09T13:56:13.356Z,82.97
2019-05-09T13:58:42.640Z,87.05
2019-05-09T14:01:11.957Z,88.41
2019-05-09T14:03:41.193Z,84.77
2019-05-09T14:06:10.826Z,83.92
2019-05-09T14:08:40.057Z,84.29
2019-05-09T14:11:09.342Z,81.47
2019-05-09T14:13:38.649Z,82.28
2019-05-09T14:16:18.862Z,80.10
2019-05-09T14:18:38.745Z,82.31
2019-05-09T14:21:08.038Z,81.64
2019-05-09T14:23:48.240Z,81.57
2019-05-09T14:26:09.371Z,80.39
2019-05-09T14:28:40.286Z,80.35
2019-05-09T14:31:09.524Z,79.18
2019-05-09T14:33:39.040Z,80.75
2019-05-09T14:36:08.407Z,82.14
2019-05-09T14:38:39.270Z,81.52
2019-05-09T14:41:09.537Z,79.06
2019-05-09T14:43:39.541Z,79.62
2019-05-09T14:46:09.036Z,79.55
2019-05-09T14:48:38.255Z,80.81
2019-05-09T14:51:07.824Z,78.42
2019-05-09T14:53:39.052Z,79.54
2019-05-09T14:56:08.695Z,80.03
2019-05-09T14:58:38.929Z,82.59
2019-05-09T15:01:08.781Z,85.25
2019-05-09T15:03:38.936Z,86.04
2019-05-09T15:06:08.684Z,85.72
2019-05-09T15:08:38.315Z,85.61
2019-05-09T15:11:09.733Z,86.69
2019-05-09T15:13:38.758Z,86.98
2019-05-09T15:16:08.891Z,85.37
2019-05-09T15:18:38.687Z,86.91
2019-05-09T15:21:08.137Z,87.43
2019-05-09T15:23:40.692Z,87.66
2019-05-09T15:26:10.050Z,83.88
2019-05-09T15:28:39.391Z,86.97
2019-05-09T15:31:08.950Z,89.68
2019-05-09T15:33:38.275Z,92.49
2019-05-09T15:36:09.144Z,94.19
2019-05-09T15:38:38.556Z,93.65
2019-05-09T15:41:12.052Z,94.58
2019-05-09T15:43:38.901Z,94.63
2019-05-09T15:46:14.673Z,95.39
2019-05-09T15:48:44.028Z,98.41
2019-05-09T15:51:13.256Z,99.06
2019-05-09T15:53:42.492Z,99.07
2019-05-09T15:56:11.787Z,99.21
2019-05-09T15:58:41.001Z,99.48
2019-05-09T16:01:12.036Z,98.80
2019-05-09T16:03:41.317Z,99.80
2019-05-09T16:06:10.552Z,99.70
2019-05-09T16:08:39.789Z,100.00
2019-05-09T16:11:09.162Z,100.00
2019-05-09T16:13:38.391Z,100.00
2019-05-09T16:16:08.944Z,100.00
2019-05-09T16:18:38.471Z,100.00
2019-05-09T16:21:08.452Z,100.00
2019-05-09T16:23:38.081Z,100.00
2019-05-09T16:26:07.969Z,100.00
2019-05-09T16:28:37.922Z,100.00
2019-05-09T16:31:07.280Z,100.00
2019-05-09T16:33:36.859Z,100.00
2019-05-09T16:36:06.112Z,100.00
2019-05-09T16:38:43.359Z,100.00
2019-05-09T16:41:07.712Z,100.00
2019-05-09T16:43:38.759Z,100.00
2019-05-09T16:46:08.093Z,100.00
2019-05-09T16:48:37.481Z,100.00
2019-05-09T16:51:07.887Z,100.00
2019-05-09T16:53:37.461Z,100.00
2019-05-09T16:56:08.204Z,100.00
2019-05-09T16:58:37.933Z,100.00
2019-05-09T17:01:08.311Z,100.00
2019-05-09T17:03:37.630Z,100.00
2019-05-09T17:06:07.692Z,100.00
2019-05-09T17:08:38.533Z,100.00
2019-05-09T17:11:08.208Z,100.00
2019-05-09T17:13:40.980Z,100.00
2019-05-09T17:16:10.267Z,100.00
2019-05-09T17:18:39.504Z,100.00
2019-05-09T17:21:24.201Z,100.00
2019-05-09T17:23:49.677Z,100.00
2019-05-09T17:26:19.027Z,100.00
2019-05-09T17:28:48.559Z,100.00
2019-05-09T17:31:18.287Z,100.00
2019-05-09T17:33:48.553Z,100.00
2019-05-09T17:36:18.311Z,100.00
2019-05-09T17:38:47.916Z,100.00
2019-05-09T17:41:17.853Z,100.00
2019-05-09T17:43:47.572Z,100.00
2019-05-09T17:46:19.164Z,100.00
2019-05-09T17:48:51.660Z,100.00
2019-05-09T17:51:32.552Z,100.00
2019-05-09T17:53:52.322Z,100.00
2019-05-09T17:56:21.811Z,100.00
2019-05-09T17:58:51.054Z,100.00
2019-05-09T18:01:20.304Z,100.00
2019-05-09T18:03:49.732Z,100.00
2019-05-09T18:06:19.309Z,100.00
2019-05-09T18:08:48.840Z,100.00
2019-05-09T18:11:18.288Z,100.00
2019-05-09T18:13:48.199Z,100.00
2019-05-09T18:16:19.027Z,100.00
2019-05-09T18:18:48.906Z,100.00
2019-05-09T18:21:18.133Z,100.00
2019-05-09T18:23:47.888Z,100.00
2019-05-09T18:26:18.518Z,100.00
2019-05-09T18:28:48.116Z,100.00
2019-05-09T18:31:17.352Z,100.00
2019-05-09T18:33:54.193Z,100.00
2019-05-09T18:36:23.416Z,100.00
2019-05-09T18:38:52.747Z,100.00
2019-05-09T18:41:22.165Z,100.00
2019-05-09T18:43:51.405Z,100.00
2019-05-09T18:46:21.771Z,100.00
2019-05-09T18:48:51.059Z,100.00
2019-05-09T18:51:20.304Z,100.00
2019-05-09T18:53:49.661Z,100.00
2019-05-09T18:56:18.948Z,100.00
2019-05-09T18:58:48.697Z,100.00
2019-05-09T19:01:17.930Z,100.00
2019-05-09T19:03:47.212Z,100.00
2019-05-09T19:06:16.463Z,100.00
2019-05-09T19:08:45.696Z,100.00
2019-05-09T19:11:15.060Z,100.00
2019-05-09T19:13:44.364Z,100.00
2019-05-09T19:16:27.349Z,100.00
2019-05-09T19:19:27.677Z,100.00
2019-05-09T19:22:06.388Z,100.00
2019-05-09T19:24:32.973Z,100.00
2019-05-09T19:27:02.216Z,100.00
2019-05-09T19:29:31.582Z,100.00
2019-05-09T19:32:00.823Z,100.00
2019-05-09T19:34:30.095Z,100.00
2019-05-09T19:36:59.419Z,100.00
2019-05-09T19:39:28.681Z,100.00
2019-05-09T19:41:57.928Z,100.00
2019-05-09T19:44:27.199Z,100.00
2019-05-09T19:46:56.646Z,100.00
2019-05-09T19:49:25.885Z,100.00
2019-05-09T19:51:55.160Z,100.00
2019-05-09T19:54:24.504Z,100.00
2019-05-09T19:56:53.733Z,100.00
2019-05-09T19:59:23.187Z,100.00
2019-05-09T20:01:52.419Z,100.00
2019-05-09T20:04:29.135Z,100.00
2019-05-09T20:06:58.372Z,100.00
2019-05-09T20:09:33.792Z,100.00
2019-05-09T20:12:34.216Z,100.00
2019-05-09T20:15:03.660Z,100.00
2019-05-09T20:17:32.893Z,100.00
2019-05-09T20:20:05.191Z,100.00
2019-05-09T20:22:34.481Z,100.00
2019-05-09T20:25:03.918Z,100.00
2019-05-09T20:27:33.142Z,100.00
2019-05-09T20:30:02.433Z,100.00
2019-05-09T20:32:31.651Z,100.00
2019-05-09T20:35:00.902Z,100.00
2019-05-09T20:37:30.566Z,100.00
2019-05-09T20:39:59.962Z,100.00
2019-05-09T20:42:29.430Z,100.00
2019-05-09T20:44:58.908Z,100.00
2019-05-09T20:47:28.417Z,100.00
2019-05-09T20:49:57.837Z,100.00
2019-05-09T20:52:27.394Z,100.00
2019-05-09T20:54:56.900Z,100.00
2019-05-09T20:57:26.328Z,100.00
2019-05-09T20:59:55.847Z,100.00
2019-05-09T21:02:25.267Z,100.00
2019-05-09T21:04:54.684Z,100.00
2019-05-09T21:07:24.148Z,100.00
2019-05-09T21:09:53.711Z,100.00
2019-05-09T21:12:23.131Z,100.00
2019-05-09T21:14:52.600Z,100.00
2019-05-09T21:17:22.129Z,100.00
2019-05-09T21:19:51.524Z,100.00
2019-05-09T21:22:21.052Z,100.00
2019-05-09T21:24:50.461Z,100.00
2019-05-09T21:27:19.887Z,100.00
2019-05-09T21:29:49.352Z,100.00
2019-05-09T21:32:18.780Z,100.00
2019-05-09T21:34:48.025Z,100.00
2019-05-09T21:37:20.444Z,100.00
2019-05-09T21:39:49.742Z,100.00
2019-05-09T21:42:18.969Z,100.00
2019-05-09T21:44:48.320Z,100.00
2019-05-09T21:47:17.834Z,100.00
2019-05-09T21:49:47.042Z,100.00
2019-05-09T21:52:16.313Z,100.00
2019-05-09T21:54:45.536Z,100.00
2019-05-09T21:57:14.783Z,100.00
2019-05-09T21:59:44.043Z,100.00
2019-05-09T22:02:13.673Z,100.00
2019-05-09T22:04:42.906Z,100.00
2019-05-09T22:07:12.231Z,100.00
2019-05-09T22:09:41.461Z,100.00
2019-05-09T22:12:10.715Z,100.00
2019-05-09T22:14:41.566Z,100.00
2019-05-09T22:17:17.792Z,100.00
2019-05-09T22:19:47.079Z,100.00
2019-05-09T22:22:16.317Z,100.00
2019-05-09T22:24:45.558Z,100.00
2019-05-09T22:27:14.890Z,100.00
2019-05-09T22:29:44.135Z,100.00
2019-05-09T22:32:13.368Z,100.00
2019-05-09T22:34:42.639Z,100.00
2019-05-09T22:37:11.879Z,100.00
2019-05-09T22:39:41.151Z,100.00
2019-05-09T22:42:10.560Z,100.00
2019-05-09T22:44:39.902Z,100.00
2019-05-09T22:47:09.350Z,100.00
2019-05-09T22:49:38.680Z,100.00
2019-05-09T22:52:07.918Z,100.00
2019-05-09T22:54:37.136Z,100.00
2019-05-09T22:57:06.415Z,100.00
2019-05-09T22:59:35.654Z,100.00
2019-05-09T23:02:07.073Z,100.00
2019-05-09T23:04:35.802Z,100.00
2019-05-09T23:07:05.040Z,100.00
2019-05-09T23:09:34.272Z,100.00
2019-05-09T23:12:03.736Z,100.00
2019-05-09T23:14:32.980Z,100.00
2019-05-09T23:17:02.208Z,100.00
2019-05-09T23:19:31.485Z,100.00
2019-05-09T23:22:00.724Z,100.00
2019-05-09T23:24:32.000Z,100.00
2019-05-09T23:27:01.229Z,100.00
2019-05-09T23:29:30.464Z,100.00
2019-05-09T23:32:24.547Z,100.00
2019-05-09T23:34:54.082Z,100.00
2019-05-09T23:37:23.325Z,100.00
2019-05-09T23:39:52.913Z,100.00
2019-05-09T23:42:22.157Z,100.00
2019-05-09T23:44:51.390Z,100.00
2019-05-09T23:47:20.900Z,100.00
2019-05-09T23:49:50.123Z,100.00
2019-05-09T23:52:19.354Z,100.00
2019-05-09T23:55:06.157Z,100.00
2019-05-09T23:57:52.906Z,100.00
